Time;durP1;ratioP1;P1;durP2;ratioP2;P2;SDS_P1;SDS_P2;PMS_P1;PMS_P2;Temp;Humidity;BMP_temperature;BMP_pressure;BME280_temperature;BME280_humidity;BME280_pressure;Samples;Min_cycle;Max_cycle;Signal;HPM_P1;HPM_P2
2023/06/21 00:01:30;;;;;;;8.43;5.05;;;19.40;99.90;;;;;;6168161;23;20079;-77
2023/06/21 00:03:57;;;;;;;6.80;4.93;;;19.40;99.90;;;;;;6169783;23;20028;-77
2023/06/21 00:06:23;;;;;;;5.70;5.20;;;19.30;99.90;;;;;;6169994;23;20079;-76
2023/06/21 00:08:49;;;;;;;6.25;5.05;;;19.30;99.90;;;;;;6167931;23;20005;-77
2023/06/21 00:11:17;;;;;;;6.88;5.10;;;19.30;99.90;;;;;;6168352;23;20815;-65
2023/06/21 00:13:43;;;;;;;8.80;5.60;;;19.30;99.90;;;;;;6168295;23;20005;-65
2023/06/21 00:16:09;;;;;;;5.30;4.70;;;19.30;99.90;;;;;;6168723;23;20316;-65
2023/06/21 00:18:34;;;;;;;6.20;4.90;;;19.20;99.90;;;;;;6170347;23;20040;-64
2023/06/21 00:21:00;;;;;;;5.57;4.97;;;19.20;99.90;;;;;;6169549;23;20012;-65
2023/06/21 00:23:26;;;;;;;6.38;5.50;;;19.20;99.90;;;;;;6164003;23;20001;-65
2023/06/21 00:25:51;;;;;;;5.43;4.93;;;19.20;99.90;;;;;;6164783;23;20017;-66
2023/06/21 00:28:17;;;;;;;5.88;5.38;;;19.20;99.90;;;;;;6166481;23;20021;-65
2023/06/21 00:30:43;;;;;;;10.63;4.80;;;19.10;99.90;;;;;;6169022;23;20017;-65
2023/06/21 00:33:08;;;;;;;7.68;4.40;;;19.10;99.90;;;;;;6167874;23;20031;-65
2023/06/21 00:35:34;;;;;;;8.80;5.32;;;19.10;99.90;;;;;;6141773;23;20009;-65
2023/06/21 00:38:00;;;;;;;5.20;4.70;;;19.00;99.90;;;;;;6167624;23;20012;-65
2023/06/21 00:40:26;;;;;;;5.63;4.90;;;19.00;99.90;;;;;;6167943;23;20383;-65
2023/06/21 00:42:54;;;;;;;5.97;5.38;;;19.00;99.90;;;;;;6167700;23;20084;-65
2023/06/21 00:45:20;;;;;;;5.00;4.60;;;19.00;99.90;;;;;;6166344;23;20013;-65
2023/06/21 00:47:46;;;;;;;5.20;4.80;;;19.00;99.90;;;;;;6168205;23;20009;-65
2023/06/21 00:50:12;;;;;;;6.55;5.60;;;19.10;99.90;;;;;;6167482;23;20927;-67
2023/06/21 00:52:43;;;;;;;9.10;4.70;;;19.10;99.90;;;;;;6166959;23;20029;-65
2023/06/21 00:55:09;;;;;;;6.15;4.20;;;19.10;99.90;;;;;;6169575;23;20104;-65
2023/06/21 00:57:36;;;;;;;8.00;4.63;;;19.00;99.90;;;;;;6167379;23;20506;-66
2023/06/21 01:00:02;;;;;;;5.45;4.55;;;18.90;99.90;;;;;;6164666;23;20008;-66
2023/06/21 01:02:27;;;;;;;5.07;4.60;;;18.80;99.90;;;;;;6167531;23;20055;-65
2023/06/21 01:04:53;;;;;;;6.18;4.53;;;18.80;99.90;;;;;;6169727;23;20402;-66
2023/06/21 01:07:36;;;;;;;5.80;4.90;;;18.70;99.90;;;;;;6164216;23;20001;-65
2023/06/21 01:10:26;;;;;;;6.00;5.18;;;18.70;99.90;;;;;;6169992;23;20059;-66
2023/06/21 01:13:06;;;;;;;5.47;4.90;;;18.70;99.90;;;;;;6167856;23;20001;-66
2023/06/21 01:15:57;;;;;;;6.57;4.88;;;18.70;99.90;;;;;;6168025;23;20197;-65
2023/06/21 01:18:26;;;;;;;6.00;5.40;;;18.70;99.90;;;;;;6165325;23;20040;-66
2023/06/21 01:20:57;;;;;;;5.85;5.30;;;18.70;99.90;;;;;;6165966;23;20009;-65
2023/06/21 01:23:52;;;;;;;5.32;4.65;;;18.80;99.90;;;;;;6167759;23;20088;-66
2023/06/21 01:27:16;;;;;;;8.88;4.80;;;18.90;99.90;;;;;;6167024;23;20013;-73
2023/06/21 01:29:47;;;;;;;11.07;5.47;;;18.80;99.90;;;;;;6019260;23;20075;-73
2023/06/21 01:32:13;;;;;;;7.07;5.07;;;18.80;99.90;;;;;;6017882;23;20016;-73
2023/06/21 01:34:40;;;;;;;6.97;5.38;;;18.80;99.90;;;;;;6113258;23;20020;-73
2023/06/21 01:37:08;;;;;;;8.30;5.32;;;18.80;99.90;;;;;;6167559;23;20435;-73
2023/06/21 01:39:34;;;;;;;7.10;5.00;;;18.80;99.90;;;;;;6166472;23;20430;-73
2023/06/21 01:42:00;;;;;;;5.05;4.57;;;18.80;99.90;;;;;;6170005;23;20011;-73
2023/06/21 01:44:26;;;;;;;5.13;4.40;;;18.80;99.90;;;;;;6170132;23;20027;-66
2023/06/21 01:46:55;;;;;;;5.22;4.82;;;18.80;99.90;;;;;;6168263;23;20027;-65
2023/06/21 01:49:22;;;;;;;9.57;5.18;;;18.70;99.90;;;;;;6167370;23;20013;-66
2023/06/21 01:51:49;;;;;;;8.15;5.05;;;18.60;99.90;;;;;;6169082;23;20016;-65
2023/06/21 01:54:16;;;;;;;8.35;4.75;;;18.60;99.90;;;;;;6169931;23;20010;-65
2023/06/21 01:56:44;;;;;;;8.80;5.78;;;18.50;99.90;;;;;;6169708;23;20056;-65
2023/06/21 01:59:10;;;;;;;5.55;5.05;;;18.50;99.90;;;;;;6166418;23;20525;-65
2023/06/21 02:01:38;;;;;;;8.02;4.82;;;18.50;99.90;;;;;;6168705;23;20009;-66
2023/06/21 02:04:07;;;;;;;8.90;5.13;;;18.40;99.90;;;;;;6169666;23;20017;-65
2023/06/21 02:06:35;;;;;;;6.47;4.95;;;18.40;99.90;;;;;;6166755;23;20009;-66
2023/06/21 02:09:01;;;;;;;5.60;4.47;;;18.40;99.90;;;;;;6170405;23;20005;-66
2023/06/21 02:11:27;;;;;;;6.57;5.10;;;18.40;99.90;;;;;;6169356;23;20063;-65
2023/06/21 02:13:53;;;;;;;7.38;5.13;;;18.30;99.90;;;;;;6168497;23;20009;-65
2023/06/21 02:16:26;;;;;;;5.45;4.95;;;18.30;99.90;;;;;;6170254;23;20110;-65
2023/06/21 02:18:52;;;;;;;5.65;5.13;;;18.30;99.90;;;;;;6169129;23;20032;-66
2023/06/21 02:21:19;;;;;;;8.18;5.43;;;18.30;99.90;;;;;;6169131;23;20036;-65
2023/06/21 02:23:44;;;;;;;6.60;4.72;;;18.30;99.90;;;;;;6169882;23;20021;-66
2023/06/21 02:26:10;;;;;;;5.75;5.05;;;18.30;99.90;;;;;;6171483;23;20370;-65
2023/06/21 02:28:36;;;;;;;6.50;5.88;;;18.30;99.90;;;;;;6168312;23;20001;-65
2023/06/21 02:31:02;;;;;;;5.15;4.65;;;18.40;99.90;;;;;;6144312;23;20441;-66
2023/06/21 02:33:28;;;;;;;6.75;5.13;;;18.30;99.90;;;;;;6170176;23;20038;-65
2023/06/21 02:35:53;;;;;;;7.40;5.00;;;18.30;99.90;;;;;;6170060;23;20009;-66
2023/06/21 02:38:19;;;;;;;7.38;5.50;;;18.30;99.90;;;;;;6169127;23;20031;-66
2023/06/21 02:40:45;;;;;;;5.97;4.72;;;18.40;99.90;;;;;;6169616;23;20001;-73
2023/06/21 02:43:11;;;;;;;7.22;4.72;;;18.40;99.90;;;;;;6171165;23;20005;-73
2023/06/21 02:45:36;;;;;;;6.53;4.90;;;18.30;99.90;;;;;;6167873;23;20027;-72
2023/06/21 02:48:04;;;;;;;7.50;5.15;;;18.20;99.90;;;;;;6169164;23;20009;-72
2023/06/21 02:50:30;;;;;;;6.90;5.75;;;18.20;99.90;;;;;;6140740;23;20075;-73
2023/06/21 02:52:55;;;;;;;6.00;5.50;;;18.20;99.90;;;;;;6169959;23;20001;-73
2023/06/21 02:55:21;;;;;;;5.50;4.70;;;18.20;99.90;;;;;;6171916;23;20592;-73
2023/06/21 02:57:46;;;;;;;5.78;5.03;;;18.20;99.90;;;;;;6169694;23;20001;-73
2023/06/21 03:00:22;;;;;;;9.50;5.03;;;18.10;99.90;;;;;;6171023;23;20016;-73
2023/06/21 03:02:49;;;;;;;5.38;4.88;;;18.20;99.90;;;;;;6169242;23;20025;-72
2023/06/21 03:05:15;;;;;;;6.10;5.35;;;18.20;99.90;;;;;;6172711;23;20013;-73
2023/06/21 03:07:44;;;;;;;6.72;4.72;;;18.20;99.90;;;;;;6171598;23;20024;-73
2023/06/21 03:10:14;;;;;;;9.85;4.90;;;18.30;99.90;;;;;;6169387;23;20015;-73
2023/06/21 03:12:41;;;;;;;6.20;5.10;;;18.20;99.90;;;;;;6171349;23;20122;-74
2023/06/21 03:15:08;;;;;;;7.53;4.97;;;18.20;99.90;;;;;;6172035;23;20005;-73
2023/06/21 03:17:35;;;;;;;7.32;4.50;;;18.10;99.90;;;;;;6170808;23;20055;-65
2023/06/21 03:20:02;;;;;;;7.93;4.65;;;18.10;99.90;;;;;;6170865;23;20009;-66
2023/06/21 03:22:28;;;;;;;5.88;5.28;;;18.00;99.90;;;;;;6170238;23;20020;-66
2023/06/21 03:24:53;;;;;;;6.32;5.13;;;18.00;99.90;;;;;;6140544;23;20385;-66
2023/06/21 03:27:19;;;;;;;6.85;4.88;;;18.10;99.90;;;;;;6168623;23;20011;-66
2023/06/21 03:29:45;;;;;;;6.32;5.47;;;18.10;99.90;;;;;;6170514;23;20510;-66
2023/06/21 03:32:10;;;;;;;9.57;5.80;;;18.10;99.90;;;;;;6171875;23;20531;-66
2023/06/21 03:34:36;;;;;;;6.82;4.65;;;18.10;99.90;;;;;;6170173;23;20076;-66
2023/06/21 03:37:02;;;;;;;8.95;5.20;;;18.10;99.90;;;;;;6170141;23;20019;-66
2023/06/21 03:39:27;;;;;;;6.18;5.53;;;18.20;99.90;;;;;;6170438;23;20001;-66
2023/06/21 03:41:53;;;;;;;8.73;5.53;;;18.20;99.90;;;;;;6170239;23;20020;-66
2023/06/21 03:44:18;;;;;;;7.70;5.43;;;18.20;99.90;;;;;;6168353;23;20048;-65
2023/06/21 03:46:44;;;;;;;5.60;4.80;;;18.20;99.90;;;;;;6171114;23;20032;-65
2023/06/21 03:49:10;;;;;;;6.47;5.28;;;18.30;99.90;;;;;;6168718;23;20055;-65
2023/06/21 03:51:35;;;;;;;6.43;5.20;;;18.30;99.90;;;;;;6167938;23;20482;-65
2023/06/21 03:54:01;;;;;;;6.65;4.93;;;18.40;99.90;;;;;;6170957;23;20001;-74
2023/06/21 03:56:28;;;;;;;6.90;5.38;;;18.40;99.90;;;;;;6143546;23;20013;-74
2023/06/21 03:58:53;;;;;;;8.35;5.38;;;18.50;99.90;;;;;;6169105;23;20020;-73
2023/06/21 04:01:19;;;;;;;7.20;5.72;;;18.50;99.90;;;;;;6169101;23;20334;-74
2023/06/21 04:03:44;;;;;;;6.30;5.75;;;18.60;99.90;;;;;;6168880;23;20024;-73
2023/06/21 04:06:10;;;;;;;11.65;5.95;;;18.60;99.90;;;;;;6167730;23;20013;-74
2023/06/21 04:08:36;;;;;;;9.75;5.40;;;18.60;99.90;;;;;;6169658;23;20012;-72
2023/06/21 04:11:01;;;;;;;9.05;5.75;;;18.60;99.90;;;;;;6170615;23;20009;-73
2023/06/21 04:13:27;;;;;;;6.60;5.90;;;18.60;99.90;;;;;;6170161;23;20005;-73
2023/06/21 04:15:52;;;;;;;9.18;5.40;;;18.60;99.90;;;;;;6169162;23;20036;-73
2023/06/21 04:18:18;;;;;;;9.00;5.72;;;18.60;99.90;;;;;;6136939;23;20226;-73
2023/06/21 04:20:46;;;;;;;6.00;5.15;;;18.70;99.90;;;;;;6170898;23;20009;-73
2023/06/21 04:23:11;;;;;;;6.45;5.60;;;18.70;99.90;;;;;;6172549;23;20026;-73
2023/06/21 04:25:37;;;;;;;12.27;5.65;;;18.80;99.90;;;;;;6169075;23;20308;-73
2023/06/21 04:28:03;;;;;;;6.60;5.57;;;18.90;99.90;;;;;;6169677;23;20004;-73
2023/06/21 04:30:33;;;;;;;6.75;5.88;;;18.90;99.90;;;;;;6169820;23;20103;-65
2023/06/21 04:32:59;;;;;;;8.60;5.47;;;19.00;99.90;;;;;;6169375;23;20112;-65
2023/06/21 04:35:25;;;;;;;7.28;6.25;;;19.00;99.90;;;;;;6166843;23;20088;-65
2023/06/21 04:37:50;;;;;;;9.60;5.82;;;19.10;99.90;;;;;;6168226;23;20001;-66
2023/06/21 04:40:18;;;;;;;6.95;5.78;;;19.10;99.90;;;;;;6169339;23;20005;-65
2023/06/21 04:42:45;;;;;;;6.70;6.10;;;19.20;99.90;;;;;;6170290;23;20005;-65
2023/06/21 04:45:15;;;;;;;10.30;5.65;;;19.30;99.90;;;;;;6168085;23;20013;-64
2023/06/21 04:47:42;;;;;;;7.07;5.78;;;19.40;99.90;;;;;;6168653;23;20009;-65
2023/06/21 04:50:10;;;;;;;7.47;6.00;;;19.50;99.90;;;;;;6168329;23;20743;-65
2023/06/21 04:52:38;;;;;;;7.25;5.90;;;19.50;99.90;;;;;;6169139;23;20012;-65
2023/06/21 04:55:07;;;;;;;7.15;6.03;;;19.60;99.90;;;;;;6168516;23;20013;-66
2023/06/21 04:57:34;;;;;;;7.35;5.85;;;19.60;99.90;;;;;;6165101;23;20013;-65
2023/06/21 05:00:06;;;;;;;7.25;6.10;;;19.70;99.90;;;;;;6167258;23;20058;-65
2023/06/21 05:02:32;;;;;;;6.10;5.50;;;19.90;99.90;;;;;;6168853;23;20024;-65
2023/06/21 05:04:57;;;;;;;7.65;5.90;;;20.00;99.90;;;;;;6170371;23;20013;-65
2023/06/21 05:07:23;;;;;;;6.65;5.93;;;20.10;99.90;;;;;;6169058;23;20009;-65
2023/06/21 05:09:49;;;;;;;6.22;5.72;;;20.20;99.90;;;;;;6169475;23;20017;-65
2023/06/21 05:12:14;;;;;;;7.65;5.93;;;20.30;99.90;;;;;;6168327;23;20040;-65
2023/06/21 05:14:40;;;;;;;6.50;5.50;;;20.40;99.90;;;;;;6167496;23;20716;-65
2023/06/21 05:17:06;;;;;;;6.60;5.82;;;20.50;99.90;;;;;;6166189;23;20156;-65
2023/06/21 05:19:31;;;;;;;6.45;5.75;;;20.60;99.90;;;;;;6165801;23;20005;-67
2023/06/21 05:21:57;;;;;;;15.63;6.03;;;20.70;99.90;;;;;;6165152;23;20330;-66
2023/06/21 05:24:22;;;;;;;6.22;5.63;;;20.80;99.90;;;;;;6164998;23;20036;-65
2023/06/21 05:26:48;;;;;;;7.03;6.32;;;20.90;99.90;;;;;;6162255;23;20568;-65
2023/06/21 05:29:14;;;;;;;7.72;5.85;;;21.00;99.90;;;;;;6166282;23;20019;-64
2023/06/21 05:31:43;;;;;;;6.63;6.00;;;21.10;99.90;;;;;;6166411;23;20820;-64
2023/06/21 05:34:10;;;;;;;8.88;6.45;;;21.30;99.90;;;;;;6168043;23;20121;-65
2023/06/21 05:36:35;;;;;;;6.60;6.00;;;21.30;99.90;;;;;;6165831;23;20033;-64
2023/06/21 05:39:02;;;;;;;9.38;6.68;;;21.40;99.90;;;;;;6166801;23;20438;-65
2023/06/21 05:41:27;;;;;;;9.20;5.65;;;21.60;99.90;;;;;;6167242;23;20001;-63
2023/06/21 05:43:53;;;;;;;13.10;6.60;;;21.70;99.90;;;;;;6139980;23;20439;-64
2023/06/21 05:46:19;;;;;;;6.07;5.47;;;21.80;99.90;;;;;;6165686;23;20079;-64
2023/06/21 05:48:44;;;;;;;9.95;6.43;;;21.90;99.90;;;;;;6166855;23;20001;-64
2023/06/21 05:51:10;;;;;;;7.72;5.63;;;22.00;99.90;;;;;;6164854;23;20179;-67
2023/06/21 05:53:36;;;;;;;9.60;6.05;;;22.20;99.90;;;;;;6161724;23;20076;-64
2023/06/21 05:56:01;;;;;;;6.38;5.57;;;22.30;99.90;;;;;;6167630;23;20001;-65
2023/06/21 05:58:27;;;;;;;12.93;6.03;;;22.30;99.90;;;;;;6169112;23;20737;-65
2023/06/21 06:00:54;;;;;;;11.35;5.22;;;22.40;99.90;;;;;;6167965;23;20063;-74
2023/06/21 06:03:19;;;;;;;47.50;7.70;;;22.50;99.90;;;;;;6169917;23;20092;-76
2023/06/21 06:05:46;;;;;;;8.65;5.60;;;22.60;99.90;;;;;;6143611;23;20113;-76
2023/06/21 06:08:12;;;;;;;6.65;5.97;;;22.60;99.90;;;;;;6168597;23;20032;-75
2023/06/21 06:10:38;;;;;;;6.22;5.03;;;22.70;99.90;;;;;;6167971;23;20390;-76
2023/06/21 06:13:03;;;;;;;7.47;5.63;;;22.70;99.90;;;;;;6168238;23;20005;-76
2023/06/21 06:15:29;;;;;;;7.63;5.35;;;22.80;99.90;;;;;;6169410;23;20013;-75
2023/06/21 06:17:57;;;;;;;8.52;5.93;;;22.90;99.90;;;;;;6172178;23;20008;-75
2023/06/21 06:20:23;;;;;;;10.10;5.68;;;23.00;99.90;;;;;;6171758;23;20063;-75
2023/06/21 06:22:49;;;;;;;7.10;5.60;;;23.00;99.90;;;;;;6171708;23;20001;-76
2023/06/21 06:25:15;;;;;;;7.50;5.75;;;23.10;99.90;;;;;;6169587;23;20013;-75
2023/06/21 06:27:40;;;;;;;7.78;5.88;;;23.20;99.90;;;;;;6172966;23;20083;-76
2023/06/21 06:30:06;;;;;;;6.70;5.60;;;23.30;99.90;;;;;;6166982;23;20379;-75
2023/06/21 06:32:32;;;;;;;6.30;5.70;;;23.40;99.90;;;;;;6168560;23;20384;-75
2023/06/21 06:34:58;;;;;;;6.28;5.68;;;23.50;99.90;;;;;;6168950;23;20072;-75
2023/06/21 06:37:24;;;;;;;6.20;5.70;;;23.60;99.90;;;;;;6167225;23;20506;-65
2023/06/21 06:39:52;;;;;;;8.43;5.85;;;23.70;99.90;;;;;;6164926;23;20016;-65
2023/06/21 06:42:18;;;;;;;6.47;5.80;;;23.80;99.90;;;;;;6165162;23;20009;-65
2023/06/21 06:44:44;;;;;;;6.32;5.72;;;23.90;99.90;;;;;;6172453;23;20050;-65
2023/06/21 06:47:10;;;;;;;6.03;5.50;;;23.90;99.90;;;;;;6137983;23;20005;-65
2023/06/21 06:49:35;;;;;;;7.45;5.95;;;24.00;99.90;;;;;;6170098;23;20084;-65
2023/06/21 06:52:01;;;;;;;6.20;5.60;;;24.10;99.90;;;;;;6170953;23;20031;-65
2023/06/21 06:54:26;;;;;;;6.75;6.05;;;24.20;99.90;;;;;;6171993;23;20066;-65
2023/06/21 06:56:52;;;;;;;6.43;5.85;;;24.30;99.90;;;;;;6172167;23;20056;-75
2023/06/21 06:59:18;;;;;;;6.47;5.78;;;24.40;99.90;;;;;;6169586;23;20009;-77
2023/06/21 07:01:43;;;;;;;6.25;5.63;;;24.30;99.90;;;;;;6168120;23;20011;-77
2023/06/21 07:04:09;;;;;;;5.78;5.25;;;24.30;99.90;;;;;;6170757;23;20451;-77
2023/06/21 07:06:34;;;;;;;6.18;5.68;;;24.40;99.90;;;;;;6168081;23;20009;-76
2023/06/21 07:09:02;;;;;;;6.10;5.50;;;24.40;99.90;;;;;;6165822;23;20061;-77
2023/06/21 07:11:28;;;;;;;5.85;5.35;;;24.60;99.90;;;;;;6168071;23;20009;-77
2023/06/21 07:13:54;;;;;;;6.20;5.70;;;24.70;99.90;;;;;;6170494;23;20031;-77
2023/06/21 07:16:20;;;;;;;5.30;4.80;;;24.80;99.90;;;;;;6166034;23;20063;-77
2023/06/21 07:18:46;;;;;;;6.78;6.07;;;24.90;99.90;;;;;;6169589;23;20009;-77
2023/06/21 07:21:12;;;;;;;6.30;5.80;;;25.00;99.90;;;;;;6143898;23;20105;-76
2023/06/21 07:23:38;;;;;;;6.55;5.65;;;25.10;99.90;;;;;;6173283;23;20024;-79
2023/06/21 07:26:03;;;;;;;8.48;4.97;;;25.10;99.90;;;;;;6166838;23;20697;-77
2023/06/21 07:28:29;;;;;;;6.03;5.47;;;25.30;99.90;;;;;;6171482;23;20080;-77
2023/06/21 07:30:55;;;;;;;5.97;5.47;;;25.30;99.90;;;;;;6168940;23;20012;-79
2023/06/21 07:33:21;;;;;;;5.68;5.13;;;25.50;99.90;;;;;;6168079;23;20008;-78
2023/06/21 07:35:47;;;;;;;5.85;5.20;;;25.50;99.90;;;;;;6144793;23;20005;-78
2023/06/21 07:38:13;;;;;;;5.75;5.22;;;25.70;99.90;;;;;;6171382;23;20005;-77
2023/06/21 07:40:39;;;;;;;5.20;4.78;;;25.70;99.90;;;;;;6170261;23;20191;-77
2023/06/21 07:43:05;;;;;;;8.80;5.45;;;25.70;99.90;;;;;;6172156;23;20706;-66
2023/06/21 07:45:31;;;;;;;6.80;5.40;;;25.70;99.90;;;;;;6142717;23;20028;-77
2023/06/21 07:47:56;;;;;;;7.15;5.20;;;25.80;99.90;;;;;;6172060;23;20005;-76
2023/06/21 07:50:25;;;;;;;5.63;5.13;;;25.90;99.90;;;;;;6171154;23;20005;-77
2023/06/21 07:52:50;;;;;;;5.93;5.20;;;26.10;99.90;;;;;;6172746;23;20359;-65
2023/06/21 07:55:16;;;;;;;6.00;5.50;;;26.20;99.90;;;;;;6169494;23;20063;-65
2023/06/21 07:57:42;;;;;;;7.63;5.30;;;26.20;99.90;;;;;;6169713;23;20001;-65
2023/06/21 08:00:11;;;;;;;6.93;5.25;;;26.10;99.90;;;;;;6170504;23;20005;-65
2023/06/21 08:02:37;;;;;;;5.85;5.28;;;26.10;99.90;;;;;;6170675;23;20064;-64
2023/06/21 08:05:04;;;;;;;5.72;5.13;;;26.10;99.90;;;;;;6171857;23;20398;-65
2023/06/21 08:07:30;;;;;;;6.25;5.57;;;26.10;99.90;;;;;;6168092;23;19997;-65
2023/06/21 08:09:55;;;;;;;6.65;5.40;;;26.10;99.90;;;;;;6170654;23;20015;-65
2023/06/21 08:12:21;;;;;;;6.07;5.38;;;26.20;99.90;;;;;;6144758;23;20017;-64
2023/06/21 08:14:47;;;;;;;6.05;5.50;;;26.30;99.90;;;;;;6145434;23;20055;-65
2023/06/21 08:17:13;;;;;;;11.40;5.85;;;26.40;99.90;;;;;;6165618;23;20116;-65
2023/06/21 08:19:38;;;;;;;6.03;5.43;;;26.50;99.90;;;;;;6161538;23;20076;-65
2023/06/21 08:22:04;;;;;;;5.70;5.15;;;26.60;99.90;;;;;;6165173;23;20074;-65
2023/06/21 08:24:30;;;;;;;6.13;5.63;;;26.60;99.90;;;;;;6161557;23;20100;-65
2023/06/21 08:26:55;;;;;;;7.40;5.93;;;26.80;99.90;;;;;;6165157;23;20029;-65
2023/06/21 08:29:21;;;;;;;5.75;5.28;;;26.80;99.90;;;;;;6169256;23;20001;-79
2023/06/21 08:31:47;;;;;;;6.20;5.70;;;26.90;99.90;;;;;;6169266;23;20004;-76
2023/06/21 08:34:12;;;;;;;5.60;5.10;;;27.00;99.90;;;;;;6167353;23;20040;-76
2023/06/21 08:36:38;;;;;;;7.70;5.70;;;27.10;99.90;;;;;;6166626;23;20367;-76
2023/06/21 08:39:04;;;;;;;6.25;5.22;;;27.00;99.90;;;;;;6139710;23;20023;-77
2023/06/21 08:41:30;;;;;;;5.65;5.15;;;27.00;99.90;;;;;;6166252;23;20371;-76
2023/06/21 08:43:56;;;;;;;7.32;5.50;;;27.00;99.90;;;;;;6169636;23;20001;-77
2023/06/21 08:46:25;;;;;;;8.68;5.00;;;27.00;99.90;;;;;;6166997;23;20032;-65
2023/06/21 08:48:54;;;;;;;10.68;5.72;;;27.00;99.90;;;;;;6169701;23;20832;-65
2023/06/21 08:51:21;;;;;;;5.57;5.18;;;27.20;99.90;;;;;;6169070;23;20009;-65
2023/06/21 08:53:55;;;;;;;5.90;5.40;;;27.30;99.90;;;;;;6142672;23;20009;-65
2023/06/21 08:56:23;;;;;;;5.53;5.10;;;27.20;99.90;;;;;;6168650;23;20005;-65
2023/06/21 08:59:11;;;;;;;5.80;5.30;;;27.30;99.90;;;;;;6170747;23;20009;-65
2023/06/21 09:01:44;;;;;;;6.32;5.70;;;27.50;99.90;;;;;;6169346;23;20702;-65
2023/06/21 09:04:15;;;;;;;5.40;4.90;;;27.50;99.90;;;;;;6171144;23;20464;-65
2023/06/21 09:06:43;;;;;;;6.20;5.70;;;27.60;99.90;;;;;;6171247;23;20035;-65
2023/06/21 09:09:13;;;;;;;6.07;5.47;;;27.70;99.90;;;;;;6169027;23;20005;-65
2023/06/21 09:11:41;;;;;;;5.47;4.97;;;27.80;99.90;;;;;;6142280;23;20016;-65
2023/06/21 09:14:07;;;;;;;10.45;5.05;;;27.80;99.90;;;;;;6142851;23;20005;-65
2023/06/21 09:16:33;;;;;;;5.38;4.88;;;27.90;99.90;;;;;;6168992;23;20051;-65
2023/06/21 09:18:59;;;;;;;6.40;5.60;;;27.90;99.90;;;;;;6170708;23;20517;-65
2023/06/21 09:21:26;;;;;;;5.50;4.60;;;28.00;99.90;;;;;;6169962;23;20032;-65
2023/06/21 09:23:52;;;;;;;7.95;5.20;;;28.10;99.90;;;;;;6171491;23;20001;-75
2023/06/21 09:26:17;;;;;;;5.28;4.70;;;28.20;99.90;;;;;;6168378;23;20051;-77
2023/06/21 09:28:44;;;;;;;5.70;4.82;;;28.20;99.90;;;;;;6167809;23;20421;-77
2023/06/21 09:31:10;;;;;;;6.60;5.00;;;28.10;99.90;;;;;;6169997;23;20017;-77
2023/06/21 09:33:39;;;;;;;5.50;4.97;;;28.10;99.90;;;;;;6164372;23;20010;-76
2023/06/21 09:36:05;;;;;;;6.45;5.78;;;28.10;99.90;;;;;;6170359;23;20009;-77
2023/06/21 09:38:33;;;;;;;5.63;5.13;;;28.10;99.90;;;;;;6143296;23;20035;-76
2023/06/21 09:41:03;;;;;;;5.60;4.88;;;28.10;99.90;;;;;;6168779;23;20016;-77
2023/06/21 09:43:28;;;;;;;7.30;5.38;;;28.10;99.90;;;;;;6171965;23;20008;-76
2023/06/21 09:46:05;;;;;;;5.30;4.88;;;28.10;99.90;;;;;;6171146;23;20013;-77
2023/06/21 09:48:34;;;;;;;5.35;4.95;;;28.10;99.90;;;;;;6171750;23;20008;-77
2023/06/21 09:51:14;;;;;;;5.78;5.28;;;28.10;99.90;;;;;;6173112;23;20093;-77
2023/06/21 09:53:45;;;;;;;5.65;5.00;;;28.10;99.90;;;;;;6170608;23;20013;-75
2023/06/21 09:56:16;;;;;;;8.00;5.18;;;28.10;99.90;;;;;;6166818;23;20482;-73
2023/06/21 09:58:43;;;;;;;7.90;5.53;;;28.20;99.90;;;;;;6171201;23;20012;-79
2023/06/21 10:01:12;;;;;;;5.95;5.22;;;28.20;99.90;;;;;;6170475;23;20036;-66
2023/06/21 10:03:38;;;;;;;5.97;5.45;;;28.20;99.90;;;;;;6171570;23;20029;-66
2023/06/21 10:06:04;;;;;;;7.25;5.60;;;28.30;99.90;;;;;;6172783;23;20083;-64
2023/06/21 10:08:33;;;;;;;6.15;5.30;;;28.30;99.90;;;;;;6146047;23;20474;-64
2023/06/21 10:11:01;;;;;;;6.43;5.10;;;28.20;99.90;;;;;;6169828;23;20009;-64
2023/06/21 10:13:31;;;;;;;5.68;5.18;;;28.20;99.90;;;;;;6170769;23;20100;-64
2023/06/21 10:15:59;;;;;;;5.45;4.95;;;28.10;99.90;;;;;;6168525;23;20050;-64
2023/06/21 10:18:28;;;;;;;9.23;5.50;;;28.10;99.90;;;;;;6135263;23;20036;-64
2023/06/21 10:21:03;;;;;;;6.25;5.22;;;28.10;99.90;;;;;;6113172;23;20014;-75
2023/06/21 10:23:31;;;;;;;7.78;5.90;;;28.20;99.90;;;;;;6102678;23;20002;-74
2023/06/21 10:26:07;;;;;;;8.40;5.57;;;28.20;99.90;;;;;;6109899;23;20424;-73
2023/06/21 10:28:37;;;;;;;6.80;6.10;;;28.20;99.90;;;;;;6111876;23;20009;-75
2023/06/21 10:31:04;;;;;;;5.65;5.15;;;28.20;99.90;;;;;;6111142;23;20013;-74
2023/06/21 10:33:33;;;;;;;6.28;5.78;;;28.10;99.90;;;;;;6108023;23;20006;-77
2023/06/21 10:36:04;;;;;;;11.75;6.25;;;28.10;99.90;;;;;;6111714;23;20111;-77
2023/06/21 10:38:48;;;;;;;9.93;5.80;;;28.10;99.90;;;;;;6110908;23;20410;-77
2023/06/21 10:41:14;;;;;;;7.53;5.63;;;28.00;99.90;;;;;;6110302;23;20767;-77
2023/06/21 10:43:42;;;;;;;5.93;5.43;;;28.00;99.90;;;;;;6112865;23;20006;-77
2023/06/21 10:46:10;;;;;;;6.45;5.85;;;28.00;99.90;;;;;;6111031;23;20102;-76
2023/06/21 10:48:36;;;;;;;7.45;5.75;;;28.00;99.90;;;;;;6110952;23;20016;-77
2023/06/21 10:51:04;;;;;;;8.45;5.97;;;28.00;99.90;;;;;;6112894;23;20006;-77
2023/06/21 10:53:34;;;;;;;6.50;5.53;;;28.00;99.90;;;;;;6111432;23;20466;-78
2023/06/21 10:56:01;;;;;;;7.10;6.35;;;28.10;99.90;;;;;;6114852;23;20029;-77
2023/06/21 10:58:28;;;;;;;7.38;5.55;;;28.20;99.90;;;;;;6111292;23;20004;-75
2023/06/21 11:00:54;;;;;;;6.82;6.32;;;28.20;99.90;;;;;;6110963;23;20089;-76
2023/06/21 11:03:25;;;;;;;6.30;5.72;;;28.20;99.90;;;;;;6109638;23;20029;-76
2023/06/21 11:06:20;;;;;;;9.60;5.83;;;28.20;99.90;;;;;;6110023;23;20029;-76
2023/06/21 11:08:45;;;;;;;6.00;5.40;;;28.10;99.90;;;;;;6110684;23;20325;-75
2023/06/21 11:11:31;;;;;;;7.25;5.72;;;28.10;99.90;;;;;;6112038;23;20025;-75
2023/06/21 11:13:59;;;;;;;7.47;5.95;;;28.10;99.90;;;;;;6110361;23;20005;-76
2023/06/21 11:16:26;;;;;;;6.25;5.32;;;28.10;99.90;;;;;;6109819;23;20089;-64
2023/06/21 11:18:59;;;;;;;8.15;5.70;;;28.00;99.90;;;;;;6110826;23;20041;-64
2023/06/21 11:21:44;;;;;;;8.18;6.13;;;28.00;99.90;;;;;;6111802;23;20022;-64
2023/06/21 11:24:11;;;;;;;6.72;5.85;;;28.00;99.90;;;;;;6109122;23;20002;-66
2023/06/21 11:26:57;;;;;;;6.97;5.75;;;27.90;99.90;;;;;;6108775;23;20387;-64
2023/06/21 11:29:35;;;;;;;8.38;5.72;;;27.90;99.90;;;;;;6111114;23;20069;-66
2023/06/21 11:32:13;;;;;;;9.10;6.47;;;27.90;99.90;;;;;;6113260;23;20006;-66
2023/06/21 11:35:00;;;;;;;9.05;6.60;;;27.90;99.90;;;;;;6112235;23;20089;-77
2023/06/21 11:37:56;;;;;;;8.18;6.35;;;27.90;99.90;;;;;;6110400;23;20428;-77
2023/06/21 11:40:29;;;;;;;11.55;6.22;;;27.80;99.90;;;;;;6111045;23;20543;-77
2023/06/21 11:42:55;;;;;;;6.70;6.00;;;27.80;99.90;;;;;;6111862;23;20020;-77
2023/06/21 11:45:33;;;;;;;8.57;6.18;;;27.80;99.90;;;;;;6112448;23;20022;-76
2023/06/21 11:48:03;;;;;;;7.35;6.07;;;27.80;99.90;;;;;;6112434;23;20085;-63
2023/06/21 11:50:41;;;;;;;7.90;6.40;;;27.70;99.90;;;;;;6108936;23;20006;-63
2023/06/21 11:53:11;;;;;;;10.07;6.00;;;27.70;99.90;;;;;;6112189;23;20066;-70
2023/06/21 11:55:38;;;;;;;8.00;6.88;;;27.70;99.90;;;;;;6108526;23;20021;-64
2023/06/21 11:58:06;;;;;;;7.65;6.97;;;27.70;99.90;;;;;;6107574;23;20127;-64
2023/06/21 12:00:32;;;;;;;8.02;7.07;;;27.70;99.90;;;;;;6110707;23;20006;-64
2023/06/21 12:02:57;;;;;;;6.95;6.28;;;27.70;99.90;;;;;;6106977;23;20678;-64
2023/06/21 12:05:23;;;;;;;7.47;6.47;;;27.70;99.90;;;;;;6103140;23;20026;-64
2023/06/21 12:07:49;;;;;;;10.85;7.38;;;27.70;99.90;;;;;;6099986;23;20883;-72
2023/06/21 12:10:15;;;;;;;9.55;6.95;;;27.70;99.90;;;;;;6103189;23;20065;-72
2023/06/21 12:12:41;;;;;;;7.50;6.90;;;27.80;99.90;;;;;;6104108;23;20010;-70
2023/06/21 12:15:06;;;;;;;8.75;7.60;;;27.90;99.90;;;;;;6108778;23;20012;-70
2023/06/21 12:17:32;;;;;;;8.65;7.72;;;28.10;99.90;;;;;;6132757;23;20822;-71
2023/06/21 12:20:04;;;;;;;8.18;7.25;;;28.20;99.90;;;;;;6112521;23;20006;-70
2023/06/21 12:22:30;;;;;;;8.05;7.22;;;28.30;99.90;;;;;;6108910;23;20467;-64
2023/06/21 12:24:56;;;;;;;7.53;6.82;;;28.50;99.90;;;;;;6108752;23;20053;-65
2023/06/21 12:27:21;;;;;;;11.02;7.05;;;28.50;99.90;;;;;;6108068;23;20036;-65
2023/06/21 12:29:51;;;;;;;9.50;6.63;;;28.60;99.90;;;;;;6110444;23;20010;-65
2023/06/21 12:32:20;;;;;;;7.93;7.05;;;28.70;99.90;;;;;;6132512;23;20022;-65
2023/06/21 12:34:47;;;;;;;7.28;6.60;;;28.80;99.90;;;;;;6111388;23;20084;-65
2023/06/21 12:37:19;;;;;;;8.00;7.32;;;28.90;99.90;;;;;;6108805;23;20724;-67
2023/06/21 12:39:49;;;;;;;7.00;6.50;;;29.00;99.90;;;;;;6110850;23;20038;-65
2023/06/21 12:42:18;;;;;;;8.20;7.38;;;29.10;99.90;;;;;;6108775;23;20010;-65
2023/06/21 12:44:43;;;;;;;7.65;6.95;;;29.10;99.90;;;;;;6111041;23;20005;-65
2023/06/21 12:47:09;;;;;;;7.72;7.03;;;29.20;99.90;;;;;;6111213;23;20014;-65
2023/06/21 12:49:35;;;;;;;7.05;6.40;;;29.20;99.90;;;;;;6112827;23;20005;-65